Time;durP1;ratioP1;P1;durP2;ratioP2;P2;SDS_P1;SDS_P2;PMS_P1;PMS_P2;Temp;Humidity;BMP_temperature;BMP_pressure;BME280_temperature;BME280_humidity;BME280_pressure;Samples;Min_cycle;Max_cycle;Signal;HPM_P1;HPM_P2
2022/12/25 00:00:06;;;;;;;34.90;12.20;;;;;;;7.65;100.00;101394.06;4782300;29;20056;-74
2022/12/25 00:02:34;;;;;;;31.10;12.00;;;;;;;7.65;100.00;101396.69;4784734;29;20252;-78
2022/12/25 00:05:01;;;;;;;33.92;12.68;;;;;;;7.65;100.00;101394.94;4784012;29;20048;-73
2022/12/25 00:07:28;;;;;;;36.30;13.20;;;;;;;7.67;100.00;101392.31;4784035;29;20139;-74
2022/12/25 00:09:55;;;;;;;38.40;12.00;;;;;;;7.67;100.00;101394.94;4780401;29;20590;-74
2022/12/25 00:12:23;;;;;;;36.42;12.05;;;;;;;7.68;100.00;101388.78;4783636;29;20052;-73
2022/12/25 00:14:50;;;;;;;33.78;11.32;;;;;;;7.70;100.00;101387.88;4780192;29;20199;-73
2022/12/25 00:17:17;;;;;;;40.03;14.20;;;;;;;7.73;100.00;101387.00;4782562;29;20047;-71
2022/12/25 00:19:44;;;;;;;31.17;11.20;;;;;;;7.72;100.00;101383.50;4783382;29;20054;-71
2022/12/25 00:22:11;;;;;;;35.75;12.30;;;;;;;7.74;100.00;101388.72;4783933;29;20052;-71
2022/12/25 00:24:39;;;;;;;31.05;10.90;;;;;;;7.76;100.00;101385.22;4781556;29;20083;-71
2022/12/25 00:27:06;;;;;;;24.38;10.20;;;;;;;7.80;100.00;101380.81;4775002;29;20442;-71
2022/12/25 00:29:34;;;;;;;29.33;9.18;;;;;;;7.82;100.00;101379.03;4772192;29;20064;-71
2022/12/25 00:32:01;;;;;;;26.67;8.43;;;;;;;7.83;100.00;101370.28;4784999;29;20044;-73
2022/12/25 00:34:29;;;;;;;26.83;9.25;;;;;;;7.86;100.00;101364.13;4783332;29;20048;-76
2022/12/25 00:36:56;;;;;;;33.00;8.90;;;;;;;7.89;100.00;101369.31;4784573;29;20056;-77
2022/12/25 00:39:23;;;;;;;19.73;7.20;;;;;;;7.91;100.00;101376.31;4781937;29;20050;-77
2022/12/25 00:44:36;;;;;;;21.30;7.63;;;;;;;7.93;100.00;101377.19;4783616;29;20056;-77
2022/12/25 00:47:04;;;;;;;30.65;7.10;;;;;;;7.96;100.00;101380.63;4783135;29;20556;-77
2022/12/25 00:49:31;;;;;;;22.48;7.00;;;;;;;7.98;100.00;101365.75;4782376;29;20047;-76
2022/12/25 00:51:58;;;;;;;22.42;7.13;;;;;;;7.98;100.00;101368.38;4783735;29;20120;-77
2022/12/25 00:54:25;;;;;;;23.23;7.03;;;;;;;8.00;100.00;101364.81;4782727;29;20048;-76
2022/12/25 00:56:52;;;;;;;26.58;7.30;;;;;;;8.03;100.00;101371.81;4783647;29;20577;-76
2022/12/25 00:59:19;;;;;;;18.48;7.30;;;;;;;8.06;100.00;101372.66;4783182;29;20133;-76
2022/12/25 01:01:46;;;;;;;24.00;7.43;;;;;;;8.09;100.00;101362.09;4784190;29;20048;-76
2022/12/25 01:04:14;;;;;;;23.83;7.70;;;;;;;8.13;100.00;101369.94;4783612;29;20487;-75
2022/12/25 01:06:41;;;;;;;27.05;7.55;;;;;;;8.18;100.00;101378.66;4783114;29;20058;-76
2022/12/25 01:11:56;;;;;;;19.92;6.32;;;;;;;8.25;100.00;101364.56;4782070;29;20519;-73
2022/12/25 01:14:22;;;;;;;20.13;6.75;;;;;;;8.26;100.00;101361.03;4783102;29;20071;-73
2022/12/25 01:16:50;;;;;;;24.67;7.45;;;;;;;8.30;100.00;101356.63;4781702;29;20040;-73
2022/12/25 01:19:17;;;;;;;20.35;6.50;;;;;;;8.30;100.00;101354.00;4783248;29;20048;-72
2022/12/25 01:21:43;;;;;;;23.70;6.10;;;;;;;8.31;100.00;101367.09;4783312;29;20059;-73
2022/12/25 01:24:11;;;;;;;17.23;6.68;;;;;;;8.32;100.00;101374.09;4783693;29;20051;-72
2022/12/25 01:26:38;;;;;;;19.70;6.22;;;;;;;8.31;100.00;101367.09;4783782;29;20422;-72
2022/12/25 01:29:05;;;;;;;20.30;6.63;;;;;;;8.33;100.00;101372.34;4783271;29;20113;-72
2022/12/25 01:31:33;;;;;;;25.65;6.85;;;;;;;8.35;100.00;101376.69;4782675;29;20047;-73
2022/12/25 01:34:00;;;;;;;25.40;6.40;;;;;;;8.36;100.00;101372.28;4783441;29;20511;-73
2022/12/25 01:36:27;;;;;;;15.32;6.38;;;;;;;8.36;100.00;101374.91;4782366;29;20063;-73
2022/12/25 01:38:55;;;;;;;20.08;5.80;;;;;;;8.35;100.00;101374.06;4783240;29;20141;-73
2022/12/25 01:41:23;;;;;;;18.77;7.28;;;;;;;8.36;100.00;101383.69;4781828;29;20052;-73
2022/12/25 01:44:13;;;;;;;23.55;6.32;;;;;;;8.37;100.00;101380.16;4783217;29;20566;-73
2022/12/25 01:46:42;;;;;;;20.85;6.35;;;;;;;8.35;100.00;101384.56;4783083;29;20051;-74
2022/12/25 01:49:15;;;;;;;19.45;6.18;;;;;;;8.37;100.00;101380.16;4763580;30;20098;-75
2022/12/25 01:51:54;;;;;;;18.83;6.28;;;;;;;8.39;100.00;101388.03;4765347;29;20040;-75
2022/12/25 01:55:02;;;;;;;23.15;6.20;;;;;;;8.39;100.00;101382.78;4749805;30;20470;-75
2022/12/25 01:57:34;;;;;;;15.25;6.18;;;;;;;8.37;100.00;101387.16;4764035;30;20102;-75
2022/12/25 02:00:05;;;;;;;24.80;6.32;;;;;;;8.35;100.00;101384.56;4764476;30;20048;-74
2022/12/25 02:02:33;;;;;;;15.23;6.05;;;;;;;8.34;100.00;101384.59;4764881;30;20127;-74
2022/12/25 02:05:24;;;;;;;16.55;5.85;;;;;;;8.34;100.00;101395.09;4765254;30;20133;-75
2022/12/25 02:07:56;;;;;;;16.85;6.25;;;;;;;8.33;100.00;101396.00;4762854;30;20048;-74
2022/12/25 02:10:25;;;;;;;22.10;6.70;;;;;;;8.33;100.00;101388.13;4764673;30;20507;-74
2022/12/25 02:12:52;;;;;;;24.05;6.47;;;;;;;8.32;100.00;101399.50;4763496;30;20603;-74
2022/12/25 02:15:29;;;;;;;24.25;6.35;;;;;;;8.33;100.00;101402.09;4763762;30;20055;-74
2022/12/25 02:18:15;;;;;;;22.23;6.57;;;;;;;8.33;100.00;101404.72;4764374;30;20124;-75
2022/12/25 02:21:32;;;;;;;24.52;6.60;;;;;;;8.34;100.00;101395.09;4752768;30;20106;-75
2022/12/25 02:24:55;;;;;;;22.15;6.82;;;;;;;8.36;100.00;101395.94;4763655;30;20056;-75
2022/12/25 02:27:43;;;;;;;21.20;7.35;;;;;;;8.37;100.00;101401.19;4761745;30;20192;-74
2022/12/25 02:30:11;;;;;;;26.90;7.30;;;;;;;8.39;100.00;101391.50;4764738;30;20459;-73
2022/12/25 02:35:55;;;;;;;19.77;6.53;;;;;;;8.43;100.00;101404.63;4762693;30;20045;-75
2022/12/25 02:38:37;;;;;;;21.00;6.70;;;;;;;8.44;100.00;101393.22;4765733;30;20127;-75
2022/12/25 02:41:14;;;;;;;22.08;6.88;;;;;;;8.43;100.00;101395.00;4758141;29;20056;-73
2022/12/25 03:07:15;;;;;;;18.60;6.53;;;;;;;8.32;100.00;101362.72;4765930;29;20518;-79
2022/12/25 03:12:45;;;;;;;22.52;6.47;;;;;;;8.23;100.00;101355.81;4764007;30;20080;-78
2022/12/25 03:18:04;;;;;;;18.52;6.13;;;;;;;8.15;100.00;101337.50;4767278;29;20040;-78
2022/12/25 03:28:57;;;;;;;18.88;6.35;;;;;;;7.92;100.00;101299.31;4767246;29;20045;-75
2022/12/25 03:31:50;;;;;;;17.42;5.95;;;;;;;7.87;100.00;101295.84;4768142;30;20045;-75
2022/12/25 03:38:18;;;;;;;22.05;6.40;;;;;;;7.77;100.00;101302.09;4766644;30;20672;-75
2022/12/25 04:38:11;;;;;;;16.77;6.65;;;;;;;7.06;100.00;101301.03;4786586;29;20118;-83
2022/12/25 04:40:38;;;;;;;17.02;6.35;;;;;;;7.04;100.00;101294.94;4788500;29;20086;-84
2022/12/25 04:43:05;;;;;;;13.82;5.93;;;;;;;7.02;100.00;101304.56;4787537;29;20040;-83
2022/12/25 04:45:34;;;;;;;14.60;6.30;;;;;;;7.01;100.00;101304.56;4785915;29;20149;-83
2022/12/25 04:48:01;;;;;;;14.65;6.20;;;;;;;6.97;100.00;101307.22;4782320;29;20134;-83
2022/12/25 04:50:28;;;;;;;13.48;5.65;;;;;;;6.96;100.00;101312.47;4773482;29;20122;-83
2022/12/25 04:52:55;;;;;;;15.45;5.97;;;;;;;6.95;100.00;101308.13;4783594;29;20047;-83
2022/12/25 04:55:22;;;;;;;16.45;6.47;;;;;;;6.92;100.00;101313.38;4783768;29;20131;-83
2022/12/25 04:57:48;;;;;;;15.27;6.68;;;;;;;6.91;100.00;101307.28;4784318;29;20048;-82
2022/12/25 05:00:16;;;;;;;14.95;6.05;;;;;;;6.87;100.00;101305.53;4784452;29;20135;-83
2022/12/25 05:02:43;;;;;;;20.55;6.88;;;;;;;6.83;100.00;101294.22;4781871;29;20051;-75
2022/12/25 05:05:10;;;;;;;16.55;6.88;;;;;;;6.78;100.00;101295.13;4782690;29;20052;-74
2022/12/25 05:07:37;;;;;;;18.13;6.22;;;;;;;6.71;100.00;101302.16;4783937;29;20047;-72
2022/12/25 05:10:05;;;;;;;15.93;7.05;;;;;;;6.64;100.00;101303.09;4767503;29;20036;-72
2022/12/25 05:12:32;;;;;;;13.32;6.78;;;;;;;6.61;100.00;101297.88;4783527;29;20105;-72
2022/12/25 05:14:59;;;;;;;18.20;7.15;;;;;;;6.52;100.00;101296.16;4781873;29;20047;-72
2022/12/25 05:17:26;;;;;;;17.25;7.10;;;;;;;6.47;100.00;101298.81;4783316;29;20052;-72
2022/12/25 05:19:53;;;;;;;24.73;8.18;;;;;;;6.46;100.00;101302.31;4783485;29;20048;-72
2022/12/25 05:22:20;;;;;;;19.65;7.43;;;;;;;6.45;100.00;101299.69;4782788;29;20047;-73
2022/12/25 05:24:47;;;;;;;18.77;7.88;;;;;;;6.41;100.00;101300.63;4783759;29;20127;-72
2022/12/25 05:27:15;;;;;;;22.75;8.63;;;;;;;6.42;100.00;101292.75;4782949;29;20096;-72
2022/12/25 05:29:42;;;;;;;21.45;8.13;;;;;;;6.46;100.00;101301.44;4782349;29;20048;-73
2022/12/25 05:32:09;;;;;;;20.67;8.00;;;;;;;6.50;100.00;101290.94;4776240;29;20106;-73
2022/12/25 05:34:36;;;;;;;23.02;8.98;;;;;;;6.52;100.00;101289.19;4782472;29;20052;-73
2022/12/25 05:37:03;;;;;;;22.83;9.82;;;;;;;6.55;100.00;101279.56;4782909;29;20043;-75
2022/12/25 05:39:30;;;;;;;21.15;9.15;;;;;;;6.55;100.00;101274.34;4783113;29;20050;-76
2022/12/25 05:41:59;;;;;;;20.83;9.43;;;;;;;6.52;100.00;101270.84;4783605;29;20047;-74
2022/12/25 05:44:27;;;;;;;20.70;9.20;;;;;;;6.51;100.00;101265.63;4782053;29;20051;-74
2022/12/25 05:47:19;;;;;;;19.27;9.13;;;;;;;6.48;100.00;101263.03;4782963;29;20522;-74
2022/12/25 05:49:46;;;;;;;27.00;10.00;;;;;;;6.47;100.00;101253.44;4783291;29;20052;-74
2022/12/25 05:52:14;;;;;;;26.50;9.05;;;;;;;6.48;100.00;101256.03;4783887;29;20043;-74
2022/12/25 05:54:42;;;;;;;19.00;8.65;;;;;;;6.49;100.00;101262.16;4781966;29;20048;-74
2022/12/25 05:57:09;;;;;;;21.63;8.45;;;;;;;6.53;100.00;101250.75;4784037;29;20044;-79
2022/12/25 05:59:37;;;;;;;20.88;8.43;;;;;;;6.61;100.00;101255.94;4783459;29;20076;-80
2022/12/25 06:02:04;;;;;;;25.27;8.55;;;;;;;6.67;100.00;101254.16;4784644;29;20055;-80
2022/12/25 06:04:32;;;;;;;20.23;8.68;;;;;;;6.75;100.00;101253.22;4782578;29;20048;-76
2022/12/25 06:06:59;;;;;;;17.90;8.25;;;;;;;6.80;100.00;101251.44;4784799;29;20141;-75
2022/12/25 06:09:26;;;;;;;19.20;8.48;;;;;;;6.84;100.00;101255.75;4785421;29;20048;-80
2022/12/25 06:11:53;;;;;;;24.67;9.05;;;;;;;6.90;100.00;101262.72;4782236;29;20099;-78
2022/12/25 06:14:20;;;;;;;20.38;7.82;;;;;;;6.95;100.00;101253.94;4778791;29;20047;-76
2022/12/25 06:16:51;;;;;;;14.90;7.22;;;;;;;7.02;100.00;101241.63;4780386;29;21322;-76
2022/12/25 06:19:20;;;;;;;23.40;7.60;;;;;;;7.07;100.00;101234.59;4784521;29;20051;-80
2022/12/25 06:21:47;;;;;;;16.33;7.18;;;;;;;7.12;100.00;101226.72;4785908;29;20054;-74
2022/12/25 06:24:14;;;;;;;19.92;7.90;;;;;;;7.17;100.00;101222.28;4782951;29;20536;-73
2022/12/25 06:26:47;;;;;;;16.92;6.75;;;;;;;7.22;100.00;101222.22;4778988;29;20133;-73
2022/12/25 06:29:15;;;;;;;15.85;6.47;;;;;;;7.27;100.00;101221.28;4784142;29;20052;-73
2022/12/25 06:31:42;;;;;;;14.48;6.03;;;;;;;7.32;100.00;101228.25;4768306;29;20047;-73
2022/12/25 06:34:09;;;;;;;19.90;6.88;;;;;;;7.37;100.00;101236.94;4785573;29;20048;-76
2022/12/25 06:36:37;;;;;;;21.88;6.57;;;;;;;7.39;100.00;101228.16;4786489;29;20048;-76
2022/12/25 06:39:04;;;;;;;15.95;6.53;;;;;;;7.45;100.00;101216.72;4784340;29;20072;-78
2022/12/25 06:41:32;;;;;;;14.73;6.35;;;;;;;7.51;100.00;101207.91;4786190;29;20603;-79
2022/12/25 06:44:01;;;;;;;25.42;6.53;;;;;;;7.56;100.00;101201.72;4784062;29;20867;-76
2022/12/25 06:46:29;;;;;;;12.30;5.82;;;;;;;7.61;100.00;101206.91;4786203;29;20060;-77
2022/12/25 06:48:59;;;;;;;14.55;6.57;;;;;;;7.66;100.00;101206.84;4785289;29;20151;-76
2022/12/25 06:51:32;;;;;;;16.73;6.03;;;;;;;7.70;100.00;101206.81;4772804;29;20237;-76
2022/12/25 06:54:03;;;;;;;17.15;5.70;;;;;;;7.72;100.00;101191.91;4770267;29;20043;-77
2022/12/25 06:56:32;;;;;;;10.48;5.40;;;;;;;7.77;100.00;101178.72;4785832;29;20062;-75
2022/12/25 06:59:04;;;;;;;11.10;5.63;;;;;;;7.78;100.00;101176.06;4777526;29;20051;-76
2022/12/25 07:01:52;;;;;;;11.43;5.25;;;;;;;7.82;100.00;101171.69;4782169;29;20051;-74
2022/12/25 07:04:37;;;;;;;14.23;5.30;;;;;;;7.84;100.00;101171.66;4784035;29;20044;-75
2022/12/25 07:07:07;;;;;;;12.50;5.38;;;;;;;7.85;100.00;101176.00;4785169;29;20396;-76
2022/12/25 07:09:41;;;;;;;11.43;5.05;;;;;;;7.87;100.00;101164.59;4784452;29;20070;-76
2022/12/25 07:12:22;;;;;;;12.75;5.63;;;;;;;7.90;100.00;101147.91;4771277;29;20047;-77
2022/12/25 07:14:53;;;;;;;16.33;5.90;;;;;;;7.92;100.00;101149.66;4780937;29;20040;-75
2022/12/25 07:17:21;;;;;;;12.63;5.50;;;;;;;7.92;100.00;101152.28;4784117;29;20755;-76
2022/12/25 07:19:50;;;;;;;8.20;5.22;;;;;;;7.96;100.00;101157.47;4784664;29;20055;-76
2022/12/25 07:22:17;;;;;;;12.38;5.38;;;;;;;7.96;100.00;101162.72;4784476;29;20134;-75
2022/12/25 07:24:44;;;;;;;9.70;5.30;;;;;;;7.98;100.00;101156.56;4784705;29;20068;-76
2022/12/25 07:27:12;;;;;;;9.77;5.22;;;;;;;7.99;100.00;101163.53;4785032;29;20044;-76
2022/12/25 07:29:39;;;;;;;10.60;4.80;;;;;;;8.01;100.00;101160.91;4781227;29;20548;-77
2022/12/25 07:32:06;;;;;;;10.75;4.88;;;;;;;8.04;100.00;101168.72;4778883;29;20113;-77
2022/12/25 07:34:33;;;;;;;13.82;5.22;;;;;;;8.10;100.00;101171.28;4776454;29;20487;-76
2022/12/25 07:37:00;;;;;;;10.57;4.22;;;;;;;8.15;100.00;101179.94;4784972;29;20139;-76
2022/12/25 07:39:27;;;;;;;11.18;4.20;;;;;;;8.18;100.00;101189.56;4785272;29;20457;-80
2022/12/25 07:41:54;;;;;;;12.55;4.85;;;;;;;8.18;100.00;101185.16;4783778;29;20453;-77
2022/12/25 07:44:25;;;;;;;10.40;4.00;;;;;;;8.22;100.00;101191.22;4768976;29;20056;-77
2022/12/25 07:46:52;;;;;;;9.73;4.38;;;;;;;8.27;100.00;101183.28;4783898;29;20040;-76
2022/12/25 07:49:19;;;;;;;9.55;3.97;;;;;;;8.34;100.00;101190.19;4785144;29;20071;-76
2022/12/25 07:51:46;;;;;;;12.75;4.20;;;;;;;8.39;100.00;101196.22;4782428;29;20036;-77
2022/12/25 07:54:13;;;;;;;9.77;3.63;;;;;;;8.43;100.00;101191.78;4779169;29;20051;-76
2022/12/25 07:56:40;;;;;;;6.13;3.85;;;;;;;8.44;100.00;101197.03;4778981;29;20933;-77
2022/12/25 07:59:09;;;;;;;8.00;3.30;;;;;;;8.47;100.00;101169.84;4782976;29;20892;-79
2022/12/25 08:01:38;;;;;;;7.80;3.20;;;;;;;8.61;100.00;101146.84;4782689;29;20734;-80
2022/12/25 08:04:07;;;;;;;8.95;3.40;;;;;;;8.71;100.00;101147.56;4768639;29;20047;-77
2022/12/25 08:06:37;;;;;;;5.88;3.22;;;;;;;8.75;100.00;101153.63;4780565;29;20106;-78
2022/12/25 08:09:11;;;;;;;10.00;3.20;;;;;;;8.72;100.00;101165.06;4783578;29;20056;-77
2022/12/25 08:11:44;;;;;;;;;;;;;;;8.69;100.00;101173.00;4784199;29;20127;-77
2022/12/25 08:14:12;;;;;;;6.57;3.10;;;;;;;8.66;100.00;101197.59;4783284;29;19930;-77
2022/12/25 08:16:40;;;;;;;6.95;3.10;;;;;;;8.65;100.00;101216.00;4785305;29;20048;-78
2022/12/25 08:19:08;;;;;;;7.75;3.25;;;;;;;8.67;100.00;101216.84;4783520;29;20043;-78
2022/12/25 08:21:36;;;;;;;7.00;2.78;;;;;;;8.67;100.00;101211.59;4784803;29;20044;-77
2022/12/25 08:24:03;;;;;;;6.80;2.80;;;;;;;8.69;100.00;101201.91;4783274;29;20044;-77
2022/12/25 08:26:30;;;;;;;9.40;3.15;;;;;;;8.69;100.00;101205.44;4784378;29;20051;-78
2022/12/25 08:28:57;;;;;;;6.13;2.75;;;;;;;8.68;100.00;101214.19;4784442;29;20040;-78
2022/12/25 08:31:28;;;;;;;6.50;3.25;;;;;;;8.68;100.00;101223.84;4784739;29;20048;-79
2022/12/25 08:33:57;;;;;;;4.78;2.80;;;;;;;8.66;100.00;101222.97;4778001;29;20534;-77
2022/12/25 08:36:25;;;;;;;7.45;2.80;;;;;;;8.66;100.00;101215.09;4786763;29;20052;-77
2022/12/25 08:38:53;;;;;;;9.98;2.55;;;;;;;8.67;100.00;101208.94;4782879;29;20121;-76
2022/12/25 08:41:30;;;;;;;8.10;2.92;;;;;;;8.67;100.00;101198.44;4777901;29;20044;-76
2022/12/25 08:44:21;;;;;;;4.43;2.42;;;;;;;8.67;100.00;101196.69;4778220;29;20132;-77
2022/12/25 08:46:49;;;;;;;5.93;2.50;;;;;;;8.67;100.00;101198.44;4779654;29;20055;-78
2022/12/25 08:49:16;;;;;;;7.95;3.13;;;;;;;8.68;100.00;101192.28;4774831;29;20525;-75
2022/12/25 08:51:44;;;;;;;5.80;2.80;;;;;;;8.71;100.00;101187.00;4776468;29;20541;-76
2022/12/25 08:54:11;;;;;;;6.30;2.60;;;;;;;8.76;100.00;101186.91;4779585;29;20052;-76
2022/12/25 08:56:38;;;;;;;8.02;3.10;;;;;;;8.78;100.00;101196.50;4782566;29;20131;-75
2022/12/25 08:59:05;;;;;;;9.68;4.18;;;;;;;8.81;100.00;101203.47;4789397;29;20047;-75
2022/12/25 09:01:32;;;;;;;22.25;14.23;;;;;;;8.83;100.00;101206.94;4787541;29;20118;-76
2022/12/25 09:04:02;;;;;;;20.90;12.75;;;;;;;8.85;100.00;101206.00;4782726;29;20545;-77
2022/12/25 09:06:31;;;;;;;12.00;6.40;;;;;;;8.85;99.68;101203.38;4784023;29;20064;-76
2022/12/25 09:09:00;;;;;;;7.80;5.10;;;;;;;8.89;99.40;101206.84;4780007;29;20128;-75
2022/12/25 09:11:27;;;;;;;14.50;7.15;;;;;;;8.92;98.90;101209.41;4781614;29;20051;-76
2022/12/25 09:13:54;;;;;;;12.50;6.03;;;;;;;8.96;98.67;101195.31;4782797;29;20518;-76
2022/12/25 09:16:22;;;;;;;11.23;5.57;;;;;;;8.99;98.82;101197.03;4783446;29;20519;-75
2022/12/25 09:18:50;;;;;;;7.10;4.28;;;;;;;9.00;98.41;101190.88;4783443;29;20485;-75
2022/12/25 09:21:18;;;;;;;9.10;4.28;;;;;;;8.97;98.30;101196.16;4783642;29;20051;-75
2022/12/25 09:23:45;;;;;;;9.25;4.35;;;;;;;8.97;97.96;101181.28;4781951;29;22207;-72
2022/12/25 09:26:16;;;;;;;8.90;5.43;;;;;;;8.97;97.78;101172.50;4767391;29;20044;-73
2022/12/25 09:28:44;;;;;;;8.63;5.53;;;;;;;8.96;97.76;101190.06;4775737;29;20048;-73
2022/12/25 09:31:21;;;;;;;10.75;5.95;;;;;;;8.97;97.49;101201.44;4779276;29;20040;-75
2022/12/25 09:33:50;;;;;;;9.68;5.78;;;;;;;9.00;97.46;101198.75;4782785;29;20492;-77
2022/12/25 09:36:17;;;;;;;22.67;13.40;;;;;;;8.98;97.62;101206.69;4770531;29;20043;-73
2022/12/25 09:38:47;;;;;;;140.43;91.13;;;;;;;8.96;97.76;101207.59;4780140;29;20044;-75
2022/12/25 09:41:32;;;;;;;411.10;244.30;;;;;;;8.91;97.91;101207.66;4781379;29;20058;-71
2022/12/25 09:44:18;;;;;;;122.43;100.65;;;;;;;8.85;97.97;101184.13;4788819;29;20122;-71
2022/12/25 09:46:54;;;;;;;21.65;12.55;;;;;;;8.77;98.06;101186.88;4786216;29;20048;-71
2022/12/25 09:49:21;;;;;;;23.15;13.68;;;;;;;8.75;98.50;101206.19;4790324;29;20063;-75
2022/12/25 09:52:01;;;;;;;28.27;19.90;;;;;;;8.74;98.75;101188.69;4789667;29;20043;-74
2022/12/25 09:55:03;;;;;;;17.10;11.30;;;;;;;8.70;99.07;101175.59;4777476;29;20052;-75
2022/12/25 09:57:31;;;;;;;12.35;9.07;;;;;;;8.65;99.23;101169.56;4781788;29;20540;-75
2022/12/25 09:59:58;;;;;;;9.57;7.20;;;;;;;8.62;99.09;101153.84;4788593;29;20048;-75
2022/12/25 10:02:55;;;;;;;12.95;7.93;;;;;;;8.63;99.44;101165.22;4789263;29;20117;-79
2022/12/25 10:06:00;;;;;;;15.27;7.93;;;;;;;8.60;99.64;101168.75;4796366;29;20151;-79
2022/12/25 10:08:53;;;;;;;18.88;12.00;;;;;;;8.58;99.74;101157.44;4788441;29;20047;-78
2022/12/25 10:11:56;;;;;;;10.15;7.10;;;;;;;8.59;100.00;101139.88;4795430;29;20079;-77
2022/12/25 10:14:32;;;;;;;15.02;8.30;;;;;;;8.59;100.00;101148.66;4761485;29;20063;-77
2022/12/25 10:18:06;;;;;;;20.02;11.50;;;;;;;8.62;100.00;101134.59;4788905;29;20158;-78
2022/12/25 10:20:55;;;;;;;17.15;10.95;;;;;;;8.61;100.00;101146.84;4767402;29;20946;-77
2022/12/25 10:23:34;;;;;;;18.20;10.43;;;;;;;8.61;100.00;101159.97;4795657;29;20055;-75
2022/12/25 10:26:10;;;;;;;13.02;6.40;;;;;;;8.61;100.00;101143.38;4790385;29;20048;-74
2022/12/25 10:28:46;;;;;;;8.68;4.07;;;;;;;8.60;100.00;101142.47;4782439;29;20098;-76
2022/12/25 10:31:20;;;;;;;11.05;5.10;;;;;;;8.60;100.00;101131.09;4776818;29;20128;-75
2022/12/25 10:33:51;;;;;;;13.52;5.95;;;;;;;8.61;100.00;101120.56;4787311;29;20121;-75
2022/12/25 10:36:25;;;;;;;12.35;6.57;;;;;;;8.63;100.00;101123.19;4789019;29;20039;-74
2022/12/25 10:38:53;;;;;;;;;;;;;;;8.62;100.00;101132.81;4786886;29;20052;-72
2022/12/25 10:41:59;;;;;;;29.38;23.70;;;;;;;8.64;100.00;101117.88;4782413;29;19936;-73
2022/12/25 10:44:26;;;;;;;;;;;;;;;8.61;100.00;101125.81;4783342;29;20463;-74
2022/12/25 10:46:57;;;;;;;14.32;6.70;;;;;;;8.62;100.00;101131.97;4788300;29;19934;-73
2022/12/25 10:49:32;;;;;;;20.23;12.38;;;;;;;8.62;100.00;101111.78;4787320;29;20144;-71
2022/12/25 10:52:01;;;;;;;14.23;7.15;;;;;;;8.64;100.00;101111.78;4786321;29;20043;-72
2022/12/25 10:54:33;;;;;;;13.57;7.35;;;;;;;8.64;100.00;101114.41;4780494;29;20606;-72
2022/12/25 10:57:27;;;;;;;16.88;7.50;;;;;;;8.67;100.00;101116.97;4785295;29;20121;-74
2022/12/25 11:00:00;;;;;;;10.82;6.40;;;;;;;8.67;100.00;101119.59;4782108;29;20063;-76
2022/12/25 11:02:35;;;;;;;12.40;5.30;;;;;;;8.65;100.00;101129.25;4783746;29;20139;-76
2022/12/25 11:05:16;;;;;;;9.48;5.63;;;;;;;8.68;100.00;101124.84;4784762;29;20056;-76
2022/12/25 11:07:53;;;;;;;18.27;11.85;;;;;;;8.69;100.00;101115.19;4783668;29;20101;-74
2022/12/25 11:10:25;;;;;;;23.98;13.30;;;;;;;8.71;100.00;101095.00;4777875;29;20527;-74
2022/12/25 11:12:53;;;;;;;10.35;5.28;;;;;;;8.73;100.00;101085.31;4779772;29;20052;-73
2022/12/25 11:15:44;;;;;;;8.85;4.40;;;;;;;8.77;100.00;101065.09;4782373;29;20113;-74
2022/12/25 11:18:24;;;;;;;13.85;6.95;;;;;;;8.78;100.00;101061.56;4769872;29;20045;-72
2022/12/25 11:21:01;;;;;;;13.80;7.10;;;;;;;8.76;100.00;101058.97;4777846;29;20136;-73
2022/12/25 11:23:31;;;;;;;10.88;4.90;;;;;;;8.78;100.00;101070.31;4779864;29;20040;-72
2022/12/25 11:26:06;;;;;;;10.48;5.22;;;;;;;8.79;100.00;101068.56;4781689;29;20043;-72
2022/12/25 11:28:39;;;;;;;12.48;4.40;;;;;;;8.78;100.00;101051.91;4780677;29;20052;-73
2022/12/25 11:31:17;;;;;;;8.70;4.68;;;;;;;8.79;100.00;101052.81;4783284;29;20048;-73
2022/12/25 11:33:52;;;;;;;15.77;5.60;;;;;;;8.80;100.00;101046.66;4783073;29;20039;-73
2022/12/25 11:36:28;;;;;;;11.07;5.28;;;;;;;8.80;100.00;101047.50;4780139;29;20050;-72
2022/12/25 11:39:07;;;;;;;9.02;5.65;;;;;;;8.83;100.00;101047.44;4780819;29;20044;-71
2022/12/25 11:41:37;;;;;;;14.38;5.93;;;;;;;8.86;100.00;101039.47;4782363;29;20123;-71
2022/12/25 11:44:32;;;;;;;11.70;5.65;;;;;;;8.89;100.00;101030.69;4778364;29;20171;-71
2022/12/25 11:47:11;;;;;;;12.45;6.60;;;;;;;8.92;100.00;101030.59;4783034;29;20050;-72
2022/12/25 11:49:58;;;;;;;11.70;5.53;;;;;;;8.96;100.00;101021.78;4778003;29;20095;-72
2022/12/25 11:52:35;;;;;;;10.18;4.60;;;;;;;8.98;100.00;101019.97;4778135;29;20043;-72
2022/12/25 11:55:17;;;;;;;10.60;5.07;;;;;;;8.96;100.00;101013.00;4782220;29;20040;-72
2022/12/25 11:57:53;;;;;;;10.93;4.63;;;;;;;8.94;100.00;101023.56;4775806;29;21741;-72
2022/12/25 12:00:21;;;;;;;11.40;4.35;;;;;;;8.93;100.00;101013.94;4778212;29;20048;-73
2022/12/25 12:03:01;;;;;;;8.23;4.78;;;;;;;8.96;100.00;101002.47;4779520;29;21142;-72
2022/12/25 12:05:41;;;;;;;9.00;5.00;;;;;;;8.96;100.00;101007.72;4780809;29;20080;-71
2022/12/25 12:08:10;;;;;;;9.57;4.97;;;;;;;8.98;100.00;101000.69;4780752;29;20052;-71
2022/12/25 12:11:38;;;;;;;10.13;5.05;;;;;;;8.98;100.00;101001.56;4782312;29;20599;-71
2022/12/25 12:14:41;;;;;;;8.32;4.85;;;;;;;8.96;100.00;100994.59;4759516;29;20051;-71
2022/12/25 12:17:13;;;;;;;7.97;4.63;;;;;;;8.92;100.00;100985.91;4780666;29;20617;-71
2022/12/25 12:19:41;;;;;;;16.08;5.65;;;;;;;8.92;100.00;100982.44;4780610;29;20056;-73
2022/12/25 12:22:34;;;;;;;11.27;4.82;;;;;;;8.93;100.00;100973.63;4773663;29;20607;-71
2022/12/25 12:25:06;;;;;;;14.38;5.38;;;;;;;8.91;100.00;100964.91;4776604;29;20060;-73
2022/12/25 12:27:39;;;;;;;11.10;4.88;;;;;;;8.90;100.00;100978.94;4783166;29;20047;-72
2022/12/25 12:30:30;;;;;;;9.25;4.75;;;;;;;8.90;100.00;100971.94;4773915;29;20058;-68
2022/12/25 12:33:03;;;;;;;18.13;10.20;;;;;;;8.89;100.00;100969.34;4780916;29;20826;-67
2022/12/25 12:35:35;;;;;;;107.20;67.93;;;;;;;8.89;100.00;100962.31;4783712;29;20056;-67
2022/12/25 12:38:14;;;;;;;25.73;13.73;;;;;;;8.90;100.00;100966.69;4781533;29;20048;-68
2022/12/25 12:40:51;;;;;;;14.48;5.47;;;;;;;8.88;100.00;100968.47;4783435;29;20055;-66
2022/12/25 12:43:35;;;;;;;12.07;6.50;;;;;;;8.86;100.00;100965.00;4783256;29;20047;-66
2022/12/25 12:46:23;;;;;;;14.48;7.70;;;;;;;8.86;100.00;100967.63;4782900;29;20087;-67
2022/12/25 12:49:19;;;;;;;16.20;8.32;;;;;;;8.83;100.00;100954.56;4781789;29;20064;-67
2022/12/25 12:51:47;;;;;;;11.48;6.55;;;;;;;8.84;100.00;100951.91;4783583;29;20055;-67
2022/12/25 12:54:20;;;;;;;15.43;7.00;;;;;;;8.88;100.00;100941.31;4783171;29;20059;-67
2022/12/25 12:57:21;;;;;;;15.13;6.63;;;;;;;8.91;100.00;100934.22;4782584;29;20232;-67
2022/12/25 12:59:48;;;;;;;11.32;6.25;;;;;;;8.96;100.00;100929.75;4782296;29;20339;-67
2022/12/25 13:02:51;;;;;;;12.25;7.20;;;;;;;9.00;100.00;100928.75;4783696;29;20044;-67
2022/12/25 13:05:47;;;;;;;11.90;7.28;;;;;;;9.03;100.00;100927.84;4782412;29;20056;-67
2022/12/25 13:09:01;;;;;;;16.67;8.02;;;;;;;9.04;100.00;100931.31;4783203;29;20048;-68
2022/12/25 13:11:37;;;;;;;14.77;8.07;;;;;;;9.02;100.00;100932.22;4781460;29;20056;-68
2022/12/25 13:14:05;;;;;;;13.80;8.20;;;;;;;9.02;100.00;100932.22;4771667;29;20044;-68
2022/12/25 13:16:38;;;;;;;13.70;8.00;;;;;;;9.05;100.00;100933.06;4779617;29;20055;-67
2022/12/25 13:19:13;;;;;;;;;;;;;;;9.04;100.00;100926.94;4776951;29;20051;-69
2022/12/25 13:21:54;;;;;;;12.50;7.82;;;;;;;9.03;100.00;100917.31;4777206;29;19972;-68
2022/12/25 13:24:26;;;;;;;15.05;8.25;;;;;;;9.07;100.00;100924.22;4777112;29;20122;-68
2022/12/25 13:26:54;;;;;;;14.68;7.90;;;;;;;9.08;100.00;100917.22;4782508;29;20074;-67
2022/12/25 13:29:37;;;;;;;12.38;8.10;;;;;;;9.08;100.00;100920.69;4782976;29;20103;-67
2022/12/25 13:32:17;;;;;;;14.27;7.85;;;;;;;9.07;100.00;100912.84;4782782;29;20052;-67
2022/12/25 13:34:45;;;;;;;21.38;12.82;;;;;;;9.04;100.00;100918.16;4782118;29;20068;-68